Terminal Aerodrome Forecast
Issued by NWS Binghamton, NY

Home | Current Version | Previous Version | Text Only | Print | Product List | Glossary On
Versions: 1 2 3 4 5 6 7 8 9 10 11 12 13 14 15
000
FTUS41 KBGM 271100
TAFAVP
TAF
KAVP 271127Z 2712/2812 24003KT P6SM FEW040
     FM271600 26006KT P6SM SCT040
     FM280000 01003KT P6SM FEW060=

USA.gov is the U.S. government's official web portal to all federal, state and local government web resources and services.